Cuovddatmohkki, Norway

5:58 AM CET on January 17, 2017 (GMT +0100)
Karasjok | | Change Station

Elev 0 ft 69.45 °N, 25.41 °E | Updated 6 minutes ago

Mostly Cloudy
Mostly Cloudy
20.7 °F
Feels Like 21 °F
N
0.6
Wind Variable Wind from West
Gusts 1.2 mph

Today
High -- | Low -- °F
--% Chance of Precip.
Yesterday
High -- | Low -- °F
Precip. -- in
Pressure 29.74 in
Visibility 6.2 miles
Clouds Few 3500 ft
Scattered Clouds 5700 ft
Windchill 21 °F
Dew Point 21 °F
Humidity 100%
Rainfall 0.00 in
Snow Depth Not available.
10:25 AM 12:40 PM
Waning Gibbous, 75% visible
METAR ENAT 170450Z 15009KT 9999 FEW035 SCT057 M00/M06 Q1007 RMK WIND 700FT 16014KT
Pressure 29.74 in
Visibility 6.2 miles
Clouds Few 3500 ft
Scattered Clouds 5700 ft
Windchill 21 °F
Dew Point 21 °F
Humidity 100%
Rainfall 0.00 in
Snow Depth Not available.
10:25 AM 12:40 PM
Waning Gibbous, 75% visible
METAR ENAT 170450Z 15009KT 9999 FEW035 SCT057 M00/M06 Q1007 RMK WIND 700FT 16014KT

Get Your Daily Forecast Email!

Thanks for signing up!

Be on the lookout for a verification email in your inbox.

You'll start receiving the daily forecast at 8 AM.

×

10-Day Weather Forecast

×

Almanac

Astronomy

Jan. 17, 2017 Rise Set
Actual Time
Civil Twilight
Nautical Twilight
Astronomical Twilight
Moon
Length of Visible Light
Length of Day
Tomorrow will be .
, % of the Moon is Illuminated

Today's Extremes

Country Highs Country Lows

Community

WunderPhotos

Upload Photos

1,962,540 photos uploaded!

WunderBlog® & News

Nearby

Air Quality

  Air Quality AQ Index Pollutant
Not available.

Snow Depth

Station Depth Elevation

Earthquake Activity

City Distance Mag. Time & Date
Minimum magnitude displayed is 2.5.

Coastal Water Temperatures

Place Temperature

Stations

Nearby Weather Stations

Station Location Temp. Windchill Dew Point Humidity Wind Precip. Elev Updated Type